Time;durP1;ratioP1;P1;durP2;ratioP2;P2;SDS_P1;SDS_P2;PMS_P1;PMS_P2;Temp;Humidity;BMP_temperature;BMP_pressure;BME280_temperature;BME280_humidity;BME280_pressure;Samples;Min_cycle;Max_cycle;Signal;HPM_P1;HPM_P2
2022/10/28 00:00:16;;;;;;;24.77;16.27;;;;;;;5.61;84.89;100236.53;5082992;28;20029;-64
2022/10/28 00:02:42;;;;;;;25.95;17.60;;;;;;;5.70;84.55;100239.19;5101479;28;20251;-64
2022/10/28 00:05:08;;;;;;;24.55;16.38;;;;;;;5.56;84.28;100225.38;5103442;28;20034;-64
2022/10/28 00:07:34;;;;;;;24.00;17.98;;;;;;;5.42;85.49;100237.25;5094653;28;20029;-64
2022/10/28 00:09:59;;;;;;;22.58;16.42;;;;;;;5.54;85.29;100229.63;5087186;28;20069;-64
2022/10/28 00:12:25;;;;;;;21.63;17.17;;;;;;;5.55;85.53;100228.78;5103544;28;20287;-64
2022/10/28 00:14:51;;;;;;;27.75;17.88;;;;;;;5.57;84.87;100231.38;5083650;28;20101;-64
2022/10/28 00:17:16;;;;;;;26.05;17.30;;;;;;;5.59;85.29;100227.13;5087347;28;20029;-64
2022/10/28 00:19:42;;;;;;;22.17;17.08;;;;;;;5.61;84.88;100233.97;5093026;28;20028;-64
2022/10/28 00:22:08;;;;;;;22.48;17.00;;;;;;;5.63;84.81;100224.56;5098736;28;20021;-64
2022/10/28 00:24:33;;;;;;;23.83;17.25;;;;;;;5.58;84.67;100215.09;5103400;28;20034;-64
2022/10/28 00:26:59;;;;;;;22.58;16.55;;;;;;;5.62;84.97;100225.41;5094729;28;20031;-64
2022/10/28 00:29:24;;;;;;;22.98;16.10;;;;;;;5.71;84.69;100222.03;5087427;28;20032;-64
2022/10/28 00:31:51;;;;;;;19.70;15.48;;;;;;;5.49;85.09;100221.88;5093365;28;20087;-65
2022/10/28 00:34:20;;;;;;;21.90;16.67;;;;;;;5.35;85.56;100223.47;5098158;28;20035;-64
2022/10/28 00:36:46;;;;;;;22.55;15.00;;;;;;;5.57;85.17;100244.22;5082703;28;20104;-64
2022/10/28 00:39:19;;;;;;;23.40;16.70;;;;;;;5.49;84.80;100236.44;5082719;28;20289;-64
2022/10/28 00:41:48;;;;;;;22.83;15.48;;;;;;;5.52;85.02;100239.88;5101459;28;20220;-65
2022/10/28 00:44:38;;;;;;;21.60;15.07;;;;;;;5.63;84.63;100232.28;5098988;28;20181;-64
2022/10/28 00:47:10;;;;;;;21.98;14.73;;;;;;;5.57;84.78;100219.38;5098495;28;20088;-64
2022/10/28 00:49:36;;;;;;;18.88;14.95;;;;;;;5.72;84.18;100220.34;5088922;28;20047;-64
2022/10/28 00:52:08;;;;;;;20.42;15.75;;;;;;;5.61;84.45;100226.25;5086708;28;20083;-64
2022/10/28 00:54:36;;;;;;;21.42;15.10;;;;;;;5.66;84.43;100227.16;5091923;28;20040;-65
2022/10/28 00:57:07;;;;;;;19.27;14.02;;;;;;;5.66;84.20;100209.16;5101924;28;20028;-65
2022/10/28 00:59:35;;;;;;;17.13;14.57;;;;;;;5.66;84.25;100216.03;5100953;28;20104;-66
2022/10/28 01:02:01;;;;;;;20.42;15.15;;;;;;;5.72;83.81;100228.91;5094695;28;20244;-63
2022/10/28 01:04:27;;;;;;;25.13;15.52;;;;;;;5.80;84.04;100231.53;5095669;28;20116;-65
2022/10/28 01:06:54;;;;;;;18.42;14.70;;;;;;;5.56;83.64;100191.97;5094229;28;20020;-65
2022/10/28 01:09:20;;;;;;;20.83;14.63;;;;;;;5.78;83.66;100226.38;5102431;28;20032;-65
2022/10/28 01:12:01;;;;;;;21.55;15.18;;;;;;;5.81;83.49;100225.53;5084868;28;20039;-65
2022/10/28 01:14:36;;;;;;;20.15;14.02;;;;;;;5.80;83.45;100226.38;5099166;28;20030;-65
2022/10/28 01:17:36;;;;;;;18.52;14.80;;;;;;;5.73;83.79;100233.22;5097229;28;20031;-64
2022/10/28 01:20:21;;;;;;;20.95;14.98;;;;;;;5.55;84.74;100223.66;5099182;28;20054;-64
2022/10/28 01:23:25;;;;;;;20.58;14.88;;;;;;;5.66;84.19;100226.31;5097460;28;20050;-65
2022/10/28 01:25:53;;;;;;;17.75;13.93;;;;;;;5.79;84.15;100232.41;5065193;28;20036;-64
2022/10/28 01:28:49;;;;;;;22.30;15.48;;;;;;;5.79;83.47;100227.25;5086243;28;20200;-65
2022/10/28 01:31:15;;;;;;;19.98;15.25;;;;;;;5.84;83.48;100230.69;5085831;28;20036;-65
2022/10/28 01:33:46;;;;;;;21.65;15.50;;;;;;;5.85;83.52;100227.28;5086990;28;20235;-66
2022/10/28 01:36:23;;;;;;;18.83;14.70;;;;;;;5.79;83.95;100238.38;5106042;28;20081;-63
2022/10/28 01:39:00;;;;;;;17.63;13.63;;;;;;;5.52;83.81;100187.66;5096870;28;20036;-65
2022/10/28 01:41:29;;;;;;;19.17;13.75;;;;;;;5.84;83.50;100215.28;5103393;28;20360;-64
2022/10/28 01:44:13;;;;;;;16.85;12.50;;;;;;;5.92;83.31;100228.19;5094644;28;20052;-64
2022/10/28 01:46:49;;;;;;;17.98;13.40;;;;;;;5.79;83.11;100202.41;5094692;28;20031;-65
2022/10/28 01:49:22;;;;;;;17.08;13.73;;;;;;;5.63;83.91;100226.25;5100789;28;20040;-65
2022/10/28 01:51:52;;;;;;;17.50;14.10;;;;;;;5.58;84.08;100207.41;5085847;28;20035;-65
2022/10/28 01:54:21;;;;;;;17.85;13.30;;;;;;;5.72;83.96;100205.78;5085718;28;20031;-65
2022/10/28 01:56:48;;;;;;;19.30;13.23;;;;;;;5.86;83.14;100219.59;5103659;28;20062;-65
2022/10/28 01:59:18;;;;;;;16.77;12.43;;;;;;;5.82;83.53;100211.84;5091133;28;20066;-65
2022/10/28 02:01:43;;;;;;;17.35;13.32;;;;;;;5.89;83.41;100213.59;5093312;28;20031;-65
2022/10/28 02:04:09;;;;;;;17.85;13.63;;;;;;;5.92;83.17;100221.34;5105552;28;20036;-65
2022/10/28 02:06:37;;;;;;;18.95;13.93;;;;;;;5.70;83.28;100197.19;5105855;28;20083;-66
2022/10/28 02:09:26;;;;;;;18.70;13.45;;;;;;;5.92;83.14;100213.63;5106029;28;20032;-66
2022/10/28 02:12:12;;;;;;;18.10;13.25;;;;;;;5.82;82.96;100201.56;5089904;28;20050;-66
2022/10/28 02:14:57;;;;;;;15.50;11.93;;;;;;;6.01;82.96;100216.28;5105931;28;20035;-67
2022/10/28 02:17:31;;;;;;;18.58;12.60;;;;;;;6.01;82.58;100218.88;5093414;28;20079;-65
2022/10/28 02:20:17;;;;;;;20.40;13.20;;;;;;;5.92;83.17;100228.19;5090769;28;20032;-65
2022/10/28 02:22:57;;;;;;;18.35;13.60;;;;;;;5.92;82.82;100223.06;5088731;28;20065;-66
2022/10/28 02:25:44;;;;;;;17.50;13.35;;;;;;;5.90;83.02;100215.34;5090677;28;20150;-66
2022/10/28 02:28:19;;;;;;;16.55;13.57;;;;;;;5.79;83.08;100222.13;5101246;28;20024;-66
2022/10/28 02:30:58;;;;;;;15.45;12.30;;;;;;;5.62;83.96;100209.16;5086023;28;20024;-66
2022/10/28 02:33:28;;;;;;;14.68;12.13;;;;;;;5.65;83.86;100202.31;5104931;28;20028;-66
2022/10/28 02:36:16;;;;;;;15.80;12.15;;;;;;;5.75;83.04;100216.09;5104291;28;20289;-66
2022/10/28 02:38:52;;;;;;;18.73;12.20;;;;;;;5.42;83.48;100191.88;5088932;28;20099;-65
2022/10/28 02:41:37;;;;;;;15.82;11.52;;;;;;;5.72;83.66;100198.06;5090245;28;20055;-64
2022/10/28 02:44:11;;;;;;;16.63;11.93;;;;;;;5.61;83.27;100202.28;5094863;28;20074;-64
2022/10/28 02:46:40;;;;;;;15.85;11.93;;;;;;;5.71;83.69;100198.91;5097389;28;20035;-66
2022/10/28 02:49:10;;;;;;;14.35;11.63;;;;;;;5.76;83.52;100220.38;5088080;28;20095;-66
2022/10/28 02:51:40;;;;;;;16.90;12.93;;;;;;;5.85;83.68;100214.44;5104803;28;20024;-66
2022/10/28 02:54:14;;;;;;;14.18;11.43;;;;;;;5.92;83.53;100218.75;5103676;28;20031;-66
2022/10/28 02:57:16;;;;;;;17.88;12.85;;;;;;;5.84;84.74;100217.84;5088452;28;20034;-65
2022/10/28 02:59:42;;;;;;;16.25;11.85;;;;;;;5.83;84.49;100214.44;5103570;28;20028;-65
2022/10/28 03:02:08;;;;;;;16.08;12.30;;;;;;;5.80;84.35;100208.41;5096210;28;20038;-65
2022/10/28 03:04:34;;;;;;;17.48;12.98;;;;;;;5.68;84.89;100207.47;5097873;28;20349;-65
2022/10/28 03:06:59;;;;;;;15.15;11.30;;;;;;;5.87;84.42;100225.56;5097743;28;20024;-65
2022/10/28 03:09:25;;;;;;;14.88;11.27;;;;;;;5.88;85.00;100219.59;5120679;28;20058;-65
2022/10/28 03:11:50;;;;;;;20.25;12.85;;;;;;;5.98;84.36;100225.69;5086741;28;20044;-64
2022/10/28 03:14:16;;;;;;;16.27;11.93;;;;;;;5.97;84.37;100226.50;5084044;28;20021;-65
2022/10/28 03:16:42;;;;;;;20.33;11.80;;;;;;;5.92;83.82;100225.63;5091523;28;20020;-65
2022/10/28 03:19:07;;;;;;;16.48;12.25;;;;;;;5.91;84.75;100224.75;5093991;28;20032;-65
2022/10/28 03:21:36;;;;;;;15.50;12.10;;;;;;;5.87;84.83;100234.16;5124843;28;20081;-65
2022/10/28 03:24:02;;;;;;;17.92;12.80;;;;;;;5.83;85.05;100218.72;5070963;28;20103;-66
2022/10/28 03:26:28;;;;;;;17.02;12.30;;;;;;;5.89;85.31;100223.88;5086577;28;20095;-64
2022/10/28 03:28:53;;;;;;;21.50;12.23;;;;;;;5.89;85.46;100218.75;5093803;28;20024;-65
2022/10/28 03:31:19;;;;;;;14.15;11.95;;;;;;;5.93;85.40;100214.47;5097898;28;20077;-65
2022/10/28 03:33:44;;;;;;;15.85;11.57;;;;;;;5.97;85.65;100209.41;5083926;28;20032;-64
2022/10/28 03:36:10;;;;;;;16.95;12.75;;;;;;;5.90;86.05;100217.03;5087612;28;20047;-65
2022/10/28 03:38:36;;;;;;;17.40;12.45;;;;;;;5.86;86.42;100213.59;5083121;28;20340;-65
2022/10/28 03:41:02;;;;;;;18.60;13.48;;;;;;;5.86;86.70;100208.44;5094282;28;20024;-65
2022/10/28 03:43:27;;;;;;;17.83;13.18;;;;;;;5.84;86.17;100205.00;5103534;28;20033;-66
2022/10/28 03:45:53;;;;;;;18.38;12.75;;;;;;;5.72;86.39;100207.50;5101746;28;20020;-65
2022/10/28 03:48:18;;;;;;;16.90;12.73;;;;;;;5.62;87.33;100209.16;5083499;28;20039;-65
2022/10/28 03:50:44;;;;;;;17.88;12.68;;;;;;;5.62;86.95;100206.56;5103023;28;20051;-64
2022/10/28 03:53:09;;;;;;;17.55;12.77;;;;;;;5.60;87.10;100200.56;5094931;28;20024;-64
2022/10/28 03:55:35;;;;;;;18.00;12.48;;;;;;;5.50;87.55;100194.47;5096764;28;20130;-64
2022/10/28 03:58:01;;;;;;;16.40;12.18;;;;;;;5.60;87.88;100200.56;5086429;28;20012;-65
2022/10/28 04:00:27;;;;;;;16.63;12.27;;;;;;;5.60;87.56;100200.56;5093849;28;20065;-65
2022/10/28 04:02:53;;;;;;;17.08;12.65;;;;;;;5.60;88.19;100192.84;5097481;28;20027;-67
2022/10/28 04:05:19;;;;;;;18.15;13.35;;;;;;;5.59;87.98;100201.41;5090463;28;20024;-65
2022/10/28 04:07:45;;;;;;;16.92;12.48;;;;;;;5.65;87.45;100199.72;5102340;28;20023;-65
2022/10/28 04:10:12;;;;;;;18.38;12.10;;;;;;;5.66;88.04;100193.75;5103650;28;20036;-65
2022/10/28 04:12:38;;;;;;;19.85;12.05;;;;;;;5.74;87.76;100203.22;5103506;28;20031;-65
2022/10/28 04:15:04;;;;;;;17.40;13.27;;;;;;;5.63;87.51;100196.31;5084412;28;20028;-65
2022/10/28 04:17:29;;;;;;;19.27;13.50;;;;;;;5.58;87.58;100187.69;5096781;28;20028;-65
2022/10/28 04:19:55;;;;;;;18.55;13.60;;;;;;;5.64;87.97;100198.03;5096016;28;20086;-64
2022/10/28 04:22:21;;;;;;;16.77;12.07;;;;;;;5.44;87.81;100192.72;5092881;28;20351;-64
2022/10/28 04:24:46;;;;;;;16.98;12.10;;;;;;;5.52;87.98;100192.81;5095618;28;20105;-64
2022/10/28 04:27:12;;;;;;;16.98;11.98;;;;;;;5.50;88.12;100189.34;5092150;28;20043;-65
2022/10/28 04:29:37;;;;;;;14.70;10.95;;;;;;;5.65;87.84;100191.19;5093323;28;20040;-65
2022/10/28 04:32:03;;;;;;;17.38;13.00;;;;;;;5.65;87.90;100204.03;5093328;28;20039;-65
2022/10/28 04:34:29;;;;;;;16.15;12.07;;;;;;;5.60;87.99;100191.16;5097337;28;20039;-64
2022/10/28 04:36:54;;;;;;;16.02;12.25;;;;;;;5.61;88.29;100192.84;5084148;28;20060;-65
2022/10/28 04:39:20;;;;;;;17.38;12.63;;;;;;;5.68;87.87;100194.59;5083897;28;20037;-65
2022/10/28 04:41:45;;;;;;;16.88;12.13;;;;;;;5.79;87.59;100192.13;5081955;28;20025;-64
2022/10/28 04:44:11;;;;;;;16.83;12.77;;;;;;;5.83;87.33;100191.28;5090172;28;20311;-65
2022/10/28 04:46:37;;;;;;;17.63;12.32;;;;;;;5.77;87.28;100187.81;5091748;28;20308;-66
2022/10/28 04:49:02;;;;;;;18.88;12.35;;;;;;;5.79;87.31;100191.28;5094692;28;20042;-65
2022/10/28 04:51:28;;;;;;;17.00;11.68;;;;;;;5.78;87.41;100182.69;5094499;28;20088;-65
2022/10/28 04:53:54;;;;;;;18.00;11.88;;;;;;;5.76;86.94;100189.53;5094341;28;20320;-64
2022/10/28 04:56:19;;;;;;;15.27;12.05;;;;;;;5.63;87.75;100177.44;5096465;28;20051;-64
2022/10/28 04:58:47;;;;;;;15.35;11.73;;;;;;;5.65;87.71;100184.31;5093290;28;20332;-66
2022/10/28 05:01:12;;;;;;;18.25;11.82;;;;;;;5.72;87.89;100184.38;5103504;28;20113;-65
2022/10/28 05:03:38;;;;;;;16.55;11.90;;;;;;;5.82;87.63;100194.72;5092357;28;20032;-65
2022/10/28 05:06:03;;;;;;;19.80;13.18;;;;;;;5.82;87.54;100189.56;5096534;28;20074;-66
2022/10/28 05:08:29;;;;;;;17.52;12.20;;;;;;;5.73;87.84;100192.09;5097512;28;20339;-66
2022/10/28 05:10:55;;;;;;;15.48;11.45;;;;;;;5.85;87.39;100188.72;5094065;28;20029;-66
2022/10/28 05:13:20;;;;;;;18.90;11.95;;;;;;;5.85;87.39;100202.44;5093476;28;20025;-65
2022/10/28 05:15:50;;;;;;;17.88;12.27;;;;;;;5.92;87.18;100190.47;5091471;28;20020;-65
2022/10/28 05:18:15;;;;;;;20.15;13.38;;;;;;;5.90;87.33;100188.75;5092537;28;20028;-65
2022/10/28 05:20:42;;;;;;;16.90;12.13;;;;;;;5.94;87.52;100191.34;5092131;28;20540;-65
2022/10/28 05:23:08;;;;;;;18.13;13.35;;;;;;;6.02;87.39;100184.56;5093058;28;20105;-66
2022/10/28 05:25:34;;;;;;;18.13;13.23;;;;;;;5.92;86.97;100169.06;5099753;28;20048;-66
2022/10/28 05:27:59;;;;;;;19.00;12.63;;;;;;;5.91;87.66;100183.63;5087253;28;20052;-66
2022/10/28 05:30:26;;;;;;;18.58;12.98;;;;;;;6.03;87.52;100182.88;5095125;28;20058;-66
2022/10/28 05:32:59;;;;;;;20.30;13.38;;;;;;;5.88;87.45;100166.47;5103103;28;20024;-66
2022/10/28 05:35:24;;;;;;;21.02;13.05;;;;;;;6.07;87.54;100188.88;5092051;28;20073;-66
2022/10/28 05:37:50;;;;;;;19.85;12.63;;;;;;;6.09;87.29;100185.47;5091355;28;20040;-67
2022/10/28 05:40:15;;;;;;;20.80;14.15;;;;;;;6.00;87.89;100183.72;5087843;28;20024;-66
2022/10/28 05:42:42;;;;;;;21.35;13.95;;;;;;;6.07;87.93;100191.44;5106497;28;20020;-66
2022/10/28 05:45:09;;;;;;;22.60;14.02;;;;;;;5.99;88.31;100196.56;5087306;28;20035;-65
2022/10/28 05:47:34;;;;;;;21.50;14.35;;;;;;;6.02;87.68;100194.00;5100244;28;20323;-65
2022/10/28 05:50:00;;;;;;;21.05;14.30;;;;;;;6.09;88.07;100200.06;5096675;28;20029;-65
2022/10/28 05:52:26;;;;;;;25.30;14.07;;;;;;;5.84;88.62;100205.88;5084195;28;20036;-66
2022/10/28 05:54:51;;;;;;;21.10;14.65;;;;;;;5.77;88.71;100201.53;5085955;28;20029;-67
2022/10/28 05:57:17;;;;;;;26.55;14.60;;;;;;;5.90;89.39;100196.47;5105756;28;20039;-65
2022/10/28 05:59:43;;;;;;;24.33;14.48;;;;;;;5.95;89.23;100199.94;5090411;28;20197;-66
2022/10/28 06:02:14;;;;;;;23.67;14.20;;;;;;;5.92;88.71;100197.34;5094789;28;20305;-65
2022/10/28 06:04:41;;;;;;;18.58;13.50;;;;;;;6.00;89.33;100205.97;5105973;28;20077;-66
2022/10/28 06:07:06;;;;;;;22.35;14.50;;;;;;;5.99;88.90;100194.84;5105927;28;20066;-67
2022/10/28 06:09:32;;;;;;;24.85;14.88;;;;;;;6.09;88.69;100200.91;5105734;28;20035;-67
2022/10/28 06:11:58;;;;;;;22.77;13.55;;;;;;;6.08;88.68;100199.16;5098520;28;20127;-66
2022/10/28 06:14:24;;;;;;;23.27;14.88;;;;;;;5.86;89.36;100195.59;5096755;28;20032;-66
2022/10/28 06:16:50;;;;;;;21.30;14.48;;;;;;;6.10;88.82;100189.78;5096841;28;20024;-65
2022/10/28 06:19:16;;;;;;;25.60;15.27;;;;;;;6.14;88.78;100188.06;5094040;28;20028;-65
2022/10/28 06:21:42;;;;;;;25.33;15.07;;;;;;;6.22;88.98;100188.97;5096080;28;20069;-66
2022/10/28 06:24:07;;;;;;;23.65;14.30;;;;;;;6.03;89.00;100180.31;5094171;28;20079;-66
2022/10/28 06:26:33;;;;;;;20.80;14.00;;;;;;;6.09;89.54;100174.34;5098183;28;20062;-65
2022/10/28 06:28:59;;;;;;;27.30;15.45;;;;;;;6.02;88.80;100165.72;5095144;28;20571;-66
2022/10/28 06:31:25;;;;;;;22.83;13.77;;;;;;;6.21;89.02;100179.50;5092665;28;20339;-64
2022/10/28 06:33:50;;;;;;;23.42;14.60;;;;;;;6.18;89.24;100180.34;5067237;28;20028;-66
2022/10/28 06:36:16;;;;;;;25.02;15.23;;;;;;;6.31;89.07;100185.56;5088043;28;20301;-65
2022/10/28 06:38:41;;;;;;;25.40;16.90;;;;;;;6.41;88.45;100181.31;5094339;28;20134;-66
2022/10/28 06:41:07;;;;;;;23.15;14.60;;;;;;;6.42;88.64;100191.59;5094436;28;20040;-66
2022/10/28 06:43:33;;;;;;;21.35;14.23;;;;;;;6.48;87.60;100188.19;5092713;28;20024;-67
2022/10/28 06:46:04;;;;;;;22.83;14.27;;;;;;;6.36;88.30;100189.88;5095641;28;20031;-66
2022/10/28 06:48:29;;;;;;;21.90;15.32;;;;;;;6.31;88.68;100181.25;5093950;28;20189;-66
2022/10/28 06:50:56;;;;;;;26.88;16.13;;;;;;;6.36;88.67;100191.59;5091316;28;20020;-65
2022/10/28 06:53:22;;;;;;;25.98;16.30;;;;;;;6.33;89.21;100177.00;5094935;28;20020;-66
2022/10/28 06:55:56;;;;;;;25.38;14.52;;;;;;;6.47;89.15;100176.19;5096628;28;20032;-66
2022/10/28 06:58:22;;;;;;;23.58;14.98;;;;;;;6.58;88.61;100169.34;5084367;28;20039;-66
2022/10/28 07:00:48;;;;;;;22.55;14.00;;;;;;;6.68;88.67;100165.97;5099264;28;20031;-65
2022/10/28 07:03:13;;;;;;;24.63;15.55;;;;;;;6.74;88.31;100171.13;5085367;28;20047;-69
2022/10/28 07:05:39;;;;;;;26.13;16.48;;;;;;;6.56;89.47;100161.63;5098501;28;20055;-65
2022/10/28 07:08:05;;;;;;;26.65;16.58;;;;;;;6.58;89.38;100164.22;5104584;28;20317;-66
2022/10/28 07:10:30;;;;;;;25.80;16.30;;;;;;;6.77;89.25;100171.97;5104655;28;20375;-65
2022/10/28 07:12:56;;;;;;;25.25;15.88;;;;;;;6.89;89.75;100164.28;5103670;28;20312;-65
2022/10/28 07:15:22;;;;;;;32.50;17.05;;;;;;;6.94;89.11;100167.72;5084155;28;20051;-66
2022/10/28 07:17:58;;;;;;;28.40;17.13;;;;;;;6.89;89.76;100172.00;5099268;28;20024;-65
2022/10/28 07:20:26;;;;;;;25.20;16.15;;;;;;;6.91;89.55;100170.28;5092319;28;20275;-65
2022/10/28 07:22:56;;;;;;;25.35;15.30;;;;;;;7.00;89.25;100174.59;5084915;28;20028;-66
2022/10/28 07:25:21;;;;;;;23.50;15.75;;;;;;;7.03;89.08;100166.88;5086835;28;20032;-64
2022/10/28 07:27:47;;;;;;;25.45;16.38;;;;;;;6.91;89.94;100157.41;5104822;28;20032;-65
2022/10/28 07:30:13;;;;;;;24.20;16.50;;;;;;;7.12;88.42;100154.00;5085685;28;20024;-66
2022/10/28 07:32:38;;;;;;;22.08;14.65;;;;;;;7.17;88.88;100151.41;5097799;28;20053;-66
2022/10/28 07:35:04;;;;;;;24.73;15.93;;;;;;;7.16;88.08;100153.13;5093880;28;20021;-66
2022/10/28 07:37:30;;;;;;;27.98;15.13;;;;;;;7.18;88.59;100161.75;5087467;28;20047;-65
2022/10/28 07:39:55;;;;;;;25.30;15.55;;;;;;;7.08;88.38;100158.31;5104308;28;20036;-64
2022/10/28 07:42:21;;;;;;;25.25;15.32;;;;;;;7.06;88.65;100154.84;5084349;28;20035;-65
2022/10/28 07:44:47;;;;;;;23.20;14.88;;;;;;;6.96;88.90;100144.56;5098727;28;20039;-68
2022/10/28 07:47:12;;;;;;;28.27;15.57;;;;;;;7.17;89.51;100159.13;5093710;28;20024;-65
2022/10/28 07:49:38;;;;;;;24.77;14.30;;;;;;;7.20;89.49;100161.75;5083704;28;20078;-66
2022/10/28 07:52:04;;;;;;;26.05;14.52;;;;;;;7.35;88.56;100160.88;5083649;28;20020;-66
2022/10/28 07:54:30;;;;;;;26.52;15.35;;;;;;;7.36;88.52;100165.16;5103689;28;20036;-66
2022/10/28 07:56:56;;;;;;;27.75;15.15;;;;;;;7.35;88.49;100166.88;5098630;28;20024;-64
2022/10/28 07:59:23;;;;;;;27.88;16.25;;;;;;;7.34;87.55;100144.56;5092147;28;20378;-65
2022/10/28 08:01:49;;;;;;;21.92;15.18;;;;;;;7.54;87.63;100151.38;5090519;28;20090;-66
2022/10/28 08:04:15;;;;;;;25.98;16.60;;;;;;;7.52;87.81;100156.53;5101853;28;20339;-66
2022/10/28 08:06:41;;;;;;;27.02;15.20;;;;;;;7.35;88.85;100160.88;5093517;28;20024;-66
2022/10/28 08:09:06;;;;;;;24.77;14.95;;;;;;;7.43;88.90;100157.41;5088218;28;20077;-66
2022/10/28 08:11:32;;;;;;;25.95;15.18;;;;;;;7.32;89.20;100164.28;5095365;28;20036;-67
2022/10/28 08:13:58;;;;;;;23.60;14.70;;;;;;;7.50;88.16;100163.44;5095705;28;20028;-66
2022/10/28 08:16:24;;;;;;;24.75;15.48;;;;;;;7.46;88.62;100160.88;5086028;28;20039;-66
2022/10/28 08:18:51;;;;;;;27.80;15.63;;;;;;;7.57;88.21;100159.97;5104056;28;20322;-66
2022/10/28 08:21:17;;;;;;;24.77;16.25;;;;;;;7.66;88.20;100150.53;5084507;28;20346;-66
2022/10/28 08:23:45;;;;;;;25.58;15.93;;;;;;;7.59;88.61;100154.81;5092594;28;20028;-67
2022/10/28 08:26:13;;;;;;;25.00;15.68;;;;;;;7.74;87.29;100154.81;5096608;28;20070;-66
2022/10/28 08:28:39;;;;;;;25.48;15.48;;;;;;;7.75;87.96;100163.38;5098640;28;20103;-65
2022/10/28 08:31:07;;;;;;;28.25;15.68;;;;;;;7.73;87.10;100150.50;5101245;28;20033;-66
2022/10/28 08:33:34;;;;;;;22.90;15.32;;;;;;;7.85;87.79;100156.47;5089983;28;20039;-66
2022/10/28 08:36:00;;;;;;;27.73;16.55;;;;;;;7.70;87.28;100155.66;5101798;28;20075;-67
2022/10/28 08:38:26;;;;;;;30.88;16.55;;;;;;;7.86;86.91;100171.09;5090447;28;20325;-65
2022/10/28 08:40:57;;;;;;;22.67;14.10;;;;;;;7.99;87.40;100170.19;5089494;28;20023;-65
2022/10/28 08:43:38;;;;;;;24.10;15.82;;;;;;;8.09;86.54;100164.16;5099004;28;20324;-66
2022/10/28 08:46:13;;;;;;;25.65;15.43;;;;;;;7.92;87.08;100153.91;5084523;28;20035;-66
2022/10/28 08:48:39;;;;;;;24.25;15.02;;;;;;;8.17;86.38;100160.69;5091956;28;20037;-66
2022/10/28 08:51:19;;;;;;;23.23;14.55;;;;;;;8.27;86.38;100163.22;5099407;28;20213;-66
2022/10/28 08:53:54;;;;;;;22.83;14.63;;;;;;;8.12;86.77;100145.22;5088856;28;20183;-65
2022/10/28 08:56:38;;;;;;;25.73;14.98;;;;;;;8.14;85.96;100151.25;5092396;28;20032;-66
2022/10/28 08:59:06;;;;;;;26.55;15.23;;;;;;;8.22;85.99;100140.88;5090813;28;20028;-65
2022/10/28 09:01:57;;;;;;;25.85;16.98;;;;;;;8.23;84.98;100130.56;5084248;28;20078;-66
2022/10/28 09:04:32;;;;;;;21.63;14.05;;;;;;;8.35;85.67;100139.97;5085199;28;20028;-67
2022/10/28 09:06:58;;;;;;;21.20;13.75;;;;;;;8.43;85.35;100138.19;5102900;28;20051;-66
2022/10/28 09:09:24;;;;;;;22.60;14.52;;;;;;;8.52;85.82;100131.31;5085507;28;20040;-66
2022/10/28 09:12:06;;;;;;;22.83;15.18;;;;;;;8.44;84.57;100129.63;5097399;28;20050;-66
2022/10/28 09:14:45;;;;;;;21.27;14.70;;;;;;;8.49;85.50;100116.69;5091210;28;20048;-67
2022/10/28 09:17:21;;;;;;;24.02;14.35;;;;;;;8.48;85.51;100122.72;5091392;28;20020;-66
2022/10/28 09:19:51;;;;;;;22.92;14.75;;;;;;;8.56;85.38;100120.09;5097229;28;20244;-66
2022/10/28 09:22:54;;;;;;;21.00;14.20;;;;;;;8.64;84.04;100095.09;5082936;28;20024;-66
2022/10/28 09:25:22;;;;;;;20.48;14.13;;;;;;;8.89;84.36;100100.06;5082540;28;20309;-66
2022/10/28 09:28:09;;;;;;;22.17;15.02;;;;;;;8.79;84.21;100107.03;5082702;28;20313;-65
2022/10/28 09:31:06;;;;;;;22.73;14.57;;;;;;;8.99;84.15;100096.53;5082790;28;20035;-65
2022/10/28 09:33:34;;;;;;;22.48;14.35;;;;;;;9.20;82.71;100097.22;5106696;28;20078;-66
2022/10/28 09:36:03;;;;;;;23.33;14.43;;;;;;;9.13;83.19;100099.00;5109321;28;20051;-66
2022/10/28 09:38:30;;;;;;;25.33;14.40;;;;;;;9.15;82.49;100094.69;5095019;28;20321;-65
2022/10/28 09:41:13;;;;;;;19.90;13.63;;;;;;;9.30;82.43;100097.13;5092849;28;20043;-66
2022/10/28 09:43:52;;;;;;;20.73;13.30;;;;;;;9.46;81.93;100078.88;5101166;28;20036;-67
2022/10/28 09:46:20;;;;;;;20.98;13.57;;;;;;;9.70;82.13;100089.84;5087564;28;20025;-66
2022/10/28 09:48:57;;;;;;;23.10;14.48;;;;;;;9.79;81.45;100090.59;5106244;28;20068;-66
2022/10/28 09:51:45;;;;;;;24.65;14.25;;;;;;;9.81;80.26;100085.41;5089587;28;20043;-67
2022/10/28 09:54:12;;;;;;;23.55;12.57;;;;;;;9.96;79.96;100076.56;5094361;28;20040;-66
2022/10/28 09:56:39;;;;;;;23.52;13.18;;;;;;;9.67;80.93;100070.88;5085970;28;20081;-66
2022/10/28 09:59:05;;;;;;;24.33;13.70;;;;;;;9.62;80.22;100069.22;5093430;28;20035;-66
2022/10/28 10:01:36;;;;;;;20.25;13.45;;;;;;;9.64;80.77;100070.06;5089036;28;20089;-66
2022/10/28 10:04:14;;;;;;;21.65;12.15;;;;;;;9.75;80.90;100052.69;5093212;28;20071;-66
2022/10/28 10:06:41;;;;;;;21.83;13.00;;;;;;;9.88;81.25;100062.91;5099194;28;20039;-66
2022/10/28 10:09:19;;;;;;;22.23;13.63;;;;;;;9.74;80.24;100069.09;5102426;28;20063;-65
2022/10/28 10:11:47;;;;;;;22.42;13.70;;;;;;;9.70;80.65;100058.81;5092860;28;20119;-66
2022/10/28 10:14:21;;;;;;;21.27;12.02;;;;;;;9.82;80.85;100062.09;5093999;28;20060;-66
2022/10/28 10:17:01;;;;;;;21.88;12.55;;;;;;;9.84;80.24;100049.97;5103994;28;20031;-66
2022/10/28 10:19:27;;;;;;;20.83;12.00;;;;;;;9.92;81.00;100056.78;5087502;28;20069;-66
2022/10/28 10:21:54;;;;;;;22.33;13.48;;;;;;;9.93;80.51;100051.63;5087618;28;20043;-67
2022/10/28 10:24:22;;;;;;;22.80;13.20;;;;;;;9.94;79.82;100058.47;5086710;28;20034;-66
2022/10/28 10:26:48;;;;;;;18.90;13.35;;;;;;;9.92;80.76;100055.06;5098942;28;20209;-66
2022/10/28 10:29:13;;;;;;;23.52;14.00;;;;;;;9.90;80.29;100054.22;5096402;28;20021;-65
2022/10/28 10:31:39;;;;;;;19.25;13.07;;;;;;;10.09;80.42;100056.56;5089123;28;20024;-66
2022/10/28 10:34:06;;;;;;;21.42;12.95;;;;;;;10.17;80.38;100062.50;5105582;28;20046;-65
2022/10/28 10:36:33;;;;;;;22.33;13.23;;;;;;;10.04;79.81;100045.44;5086532;28;20041;-65
2022/10/28 10:39:00;;;;;;;17.40;12.10;;;;;;;10.17;79.80;100059.91;5100062;28;20036;-65
2022/10/28 10:41:40;;;;;;;17.45;11.77;;;;;;;9.99;79.44;100036.00;5094515;28;20032;-66
2022/10/28 10:44:21;;;;;;;17.45;9.63;;;;;;;10.08;79.93;100047.97;5092187;28;20028;-66
2022/10/28 10:46:59;;;;;;;16.35;12.45;;;;;;;10.09;79.13;100039.34;5104627;28;20034;-66
2022/10/28 10:49:25;;;;;;;15.75;10.77;;;;;;;10.10;79.24;100035.84;5103009;28;20085;-66
2022/10/28 10:51:55;;;;;;;17.42;10.95;;;;;;;10.11;79.00;100036.72;5084787;28;20025;-65
2022/10/28 10:54:22;;;;;;;16.52;11.43;;;;;;;9.96;79.47;100040.34;5102603;28;20028;-65
2022/10/28 10:56:47;;;;;;;16.40;10.90;;;;;;;9.95;79.74;100031.75;5091750;28;20036;-66
2022/10/28 10:59:27;;;;;;;17.25;11.18;;;;;;;9.98;80.02;100026.53;5092614;28;20069;-67
2022/10/28 11:01:56;;;;;;;17.25;11.25;;;;;;;9.87;80.49;100020.63;5090094;28;20047;-66
2022/10/28 11:04:24;;;;;;;18.05;11.15;;;;;;;9.99;80.39;100046.34;5103472;28;20038;-66
2022/10/28 11:06:55;;;;;;;18.52;11.55;;;;;;;9.91;80.40;100043.00;5095912;28;20040;-66
2022/10/28 11:09:32;;;;;;;17.77;11.27;;;;;;;9.82;79.76;100043.97;5104576;28;20024;-66
2022/10/28 11:11:58;;;;;;;15.82;11.85;;;;;;;9.74;80.57;100040.63;5104654;28;20419;-66
2022/10/28 11:14:25;;;;;;;17.27;11.75;;;;;;;9.50;81.26;100021.97;5094895;28;20087;-66
2022/10/28 11:16:59;;;;;;;30.33;21.05;;;;;;;9.61;80.87;100026.16;5089080;28;20082;-66
2022/10/28 11:19:35;;;;;;;17.52;11.50;;;;;;;9.71;80.71;100027.75;5102925;28;20336;-66
2022/10/28 11:22:16;;;;;;;16.60;11.20;;;;;;;9.80;80.44;100024.19;5084295;28;20067;-66
2022/10/28 11:25:04;;;;;;;14.77;11.02;;;;;;;9.85;79.97;100022.41;5084045;28;20084;-67
2022/10/28 11:28:00;;;;;;;15.52;10.50;;;;;;;9.74;80.63;100025.13;5083869;28;20073;-66